KFTK/FTK METAR and TAF weather

Enter ICAO airport designator
Station Type Date Time Source
KFTK METAR 2020/07/04 07:56 UTC NOAA

KFTK 040756Z AUTO 35003KT 10SM CLR 20/20 A2997 RMK AO2 SLP144 T01990199


Station Type Date Time Source
KFTK Decoded METAR 2020/07/04 07:56 UTC NOAA

Fort Knox, KY, United States (KFTK) 37-54N 085-58W 230M
Jul 04, 2020 - 03:56 AM EDT / 2020.07.04 0756 UTC
Wind: from the N (350 degrees) at 3 MPH (3 KT):0
Visibility: 10 mile(s):0
Sky conditions: clear
Temperature: 67.8 F (19.9 C)
Dew Point: 67.8 F (19.9 C)
Relative Humidity: 100%
Pressure (altimeter): 29.97 in. Hg (1014 hPa)
ob: KFTK 040756Z AUTO 35003KT 10SM CLR 20/20 A2997 RMK AO2 SLP144 T01990199
cycle: 8

Station Type Date Time Source
KFTK TAF 2020/07/04 01:27 UTC NOAA

TAF TAF KFTK 040100Z 0401/0507 VRB06KT 9999 FEW080 QNH2990INS TX33/0420Z TN20/0411Z

Example: see airport list